Terminal Aerodrome Forecast
Issued by NWS Des Moines, IA

Home | Current Version | Previous Version | Text Only | Print | Product List | Glossary On
Versions: 1 2 3 4 5 6 7 8 9 10 11 12 13 14 15 16 17 18 19 20 21 22 23 24 25 26 27 28 29 30
000
FTUS43 KDMX 280520
TAFALO
TAF
KALO 280520Z 2806/2906 08005KT P6SM BKN040
     FM280900 11007KT 5SM BR VCSH SCT015 OVC030
     FM281400 12011KT 4SM -TSRA BR SCT007 OVC015CB
     FM282000 13009KT 6SM BR VCSH SCT015 OVC030
     FM290300 15008KT 5SM BR VCSH OVC015=

USA.gov is the U.S. government's official web portal to all federal, state and local government web resources and services.